Time;durP1;ratioP1;P1;durP2;ratioP2;P2;SDS_P1;SDS_P2;PMS_P1;PMS_P2;Temp;Humidity;BMP_temperature;BMP_pressure;BME280_temperature;BME280_humidity;BME280_pressure;Samples;Min_cycle;Max_cycle;Signal;HPM_P1;HPM_P2
2021/10/12 00:02:27;;;;;;;13.00;2.80;;;10.00;86.40;;;;;;4955998;29;20373;-71
2021/10/12 00:04:54;;;;;;;10.82;2.90;;;10.00;86.30;;;;;;4951829;29;20062;-71
2021/10/12 00:11:56;;;;;;;12.88;2.88;;;9.90;85.60;;;;;;4955847;28;20055;-71
2021/10/12 00:14:23;;;;;;;11.00;2.78;;;9.90;85.20;;;;;;4956042;28;20051;-71
2021/10/12 00:16:52;;;;;;;13.70;3.05;;;9.90;85.10;;;;;;4955942;29;20051;-72
2021/10/12 00:19:19;;;;;;;14.63;3.17;;;9.80;85.00;;;;;;4955509;28;20054;-71
2021/10/12 00:21:47;;;;;;;16.02;3.53;;;9.80;85.00;;;;;;4970434;28;20051;-71
2021/10/12 00:24:15;;;;;;;14.40;3.60;;;9.80;85.10;;;;;;4954516;29;20047;-70
2021/10/12 00:26:42;;;;;;;16.55;3.45;;;9.80;85.20;;;;;;4955627;29;20051;-70
2021/10/12 00:29:11;;;;;;;15.30;3.60;;;9.70;85.40;;;;;;4939350;29;20050;-71
2021/10/12 00:31:39;;;;;;;11.93;3.05;;;9.70;85.50;;;;;;4955561;29;20051;-71
2021/10/12 00:34:06;;;;;;;20.30;3.25;;;9.70;85.50;;;;;;4954395;29;20067;-70
2021/10/12 00:45:46;;;;;;;13.65;2.63;;;9.70;85.00;;;;;;4954029;29;20031;-71
2021/10/12 00:48:13;;;;;;;8.45;2.40;;;9.80;84.80;;;;;;4955253;29;20074;-72
2021/10/12 00:59:53;;;;;;;9.32;2.13;;;9.70;83.90;;;;;;4954436;28;20392;-71
2021/10/12 01:02:21;;;;;;;10.70;2.35;;;9.70;83.60;;;;;;4969299;28;20420;-71
2021/10/12 01:04:49;;;;;;;7.38;1.88;;;9.70;83.60;;;;;;4953733;29;20055;-72
2021/10/12 01:07:17;;;;;;;9.32;1.73;;;9.70;83.70;;;;;;4938144;29;20074;-72
2021/10/12 01:09:44;;;;;;;10.57;2.00;;;9.70;83.70;;;;;;4955554;29;20051;-72
2021/10/12 01:12:12;;;;;;;11.65;2.40;;;9.70;83.50;;;;;;4954954;29;20046;-72
2021/10/12 01:14:40;;;;;;;10.32;2.35;;;9.80;83.30;;;;;;4955804;29;20047;-71
2021/10/12 01:17:07;;;;;;;12.52;1.98;;;9.80;83.30;;;;;;4955519;29;20120;-72
2021/10/12 01:19:35;;;;;;;10.30;1.88;;;9.80;83.30;;;;;;4937762;29;20047;-72
2021/10/12 01:22:03;;;;;;;8.00;1.65;;;9.90;83.20;;;;;;4937668;29;20055;-72
2021/10/12 01:24:30;;;;;;;10.85;2.17;;;9.90;83.10;;;;;;4954896;29;20047;-72
2021/10/12 01:26:58;;;;;;;10.68;1.85;;;10.00;82.70;;;;;;4954915;29;20507;-72
2021/10/12 01:29:25;;;;;;;7.25;2.15;;;10.00;82.60;;;;;;4969490;28;20047;-72
2021/10/12 01:31:53;;;;;;;10.43;2.15;;;10.00;82.60;;;;;;4937367;29;20062;-72
2021/10/12 01:34:21;;;;;;;11.07;2.20;;;9.90;82.60;;;;;;4953911;29;20047;-71
2021/10/12 01:36:49;;;;;;;11.65;2.30;;;9.90;82.70;;;;;;4937830;29;20047;-70
2021/10/12 01:39:18;;;;;;;15.55;2.55;;;9.80;82.90;;;;;;4955149;28;20361;-70
2021/10/12 01:41:46;;;;;;;8.63;2.15;;;9.80;83.10;;;;;;4937522;29;20054;-71
2021/10/12 01:44:16;;;;;;;12.70;2.05;;;9.80;83.20;;;;;;4954792;29;20428;-70
2021/10/12 01:46:43;;;;;;;12.50;2.58;;;9.70;83.40;;;;;;4955406;29;20051;-70
2021/10/12 01:49:11;;;;;;;11.43;2.17;;;9.70;83.50;;;;;;4938096;29;20065;-71
2021/10/12 01:51:38;;;;;;;11.98;2.38;;;9.70;83.70;;;;;;4954314;29;20055;-71
2021/10/12 01:54:25;;;;;;;13.40;2.20;;;9.70;83.80;;;;;;4937605;29;20376;-71
2021/10/12 01:56:53;;;;;;;11.27;2.10;;;9.80;84.00;;;;;;4969380;28;20047;-71
2021/10/12 01:59:21;;;;;;;13.10;2.40;;;9.70;83.90;;;;;;4954790;29;20058;-71
2021/10/12 02:01:49;;;;;;;9.98;1.90;;;9.80;84.00;;;;;;4954494;29;20054;-71
2021/10/12 02:04:16;;;;;;;9.40;2.00;;;9.80;84.00;;;;;;4954366;29;20389;-70
2021/10/12 02:06:44;;;;;;;16.60;2.15;;;9.80;84.00;;;;;;4955001;29;20047;-72
2021/10/12 02:09:12;;;;;;;16.27;2.55;;;9.80;84.00;;;;;;4937225;29;20063;-71
2021/10/12 02:11:39;;;;;;;11.20;2.10;;;9.90;84.10;;;;;;4956289;28;20496;-71
2021/10/12 02:14:07;;;;;;;11.73;2.30;;;9.90;84.20;;;;;;4972742;28;20515;-71
2021/10/12 02:16:34;;;;;;;14.43;2.50;;;9.90;84.20;;;;;;4957409;29;20055;-71
2021/10/12 02:19:02;;;;;;;11.50;2.53;;;9.90;84.40;;;;;;4957671;29;20066;-71
2021/10/12 02:21:30;;;;;;;15.05;2.53;;;9.90;85.00;;;;;;4958031;29;20062;-71
2021/10/12 02:23:58;;;;;;;13.00;2.25;;;9.90;85.30;;;;;;4958442;29;20039;-71
2021/10/12 02:26:28;;;;;;;11.25;1.95;;;9.80;85.60;;;;;;4957237;29;20520;-70
2021/10/12 02:28:55;;;;;;;11.63;2.00;;;9.80;85.80;;;;;;4941368;29;20472;-70
2021/10/12 02:31:23;;;;;;;15.43;2.70;;;9.80;85.80;;;;;;4958303;29;20055;-71
2021/10/12 02:33:50;;;;;;;17.83;2.80;;;9.90;86.10;;;;;;4940774;29;20047;-71
2021/10/12 02:36:18;;;;;;;11.25;2.85;;;9.80;86.30;;;;;;4958320;29;20074;-71
2021/10/12 02:38:46;;;;;;;11.98;2.28;;;9.80;86.30;;;;;;4957774;29;20047;-71
2021/10/12 02:41:13;;;;;;;14.65;2.92;;;9.80;86.40;;;;;;4941245;29;20132;-70
2021/10/12 02:43:41;;;;;;;12.40;3.13;;;9.80;86.40;;;;;;4957295;29;20059;-71
2021/10/12 02:46:09;;;;;;;14.63;2.58;;;9.80;86.40;;;;;;4957891;29;20066;-71
2021/10/12 02:48:36;;;;;;;9.80;2.30;;;9.90;86.40;;;;;;4957496;29;20066;-72
2021/10/12 02:51:04;;;;;;;9.25;2.22;;;9.90;86.40;;;;;;4957422;29;20051;-72
2021/10/12 02:53:32;;;;;;;13.23;2.78;;;10.00;86.50;;;;;;4957412;29;20095;-71
2021/10/12 02:56:00;;;;;;;17.20;3.00;;;10.00;86.40;;;;;;4956775;29;20500;-72
2021/10/12 02:58:27;;;;;;;12.52;2.45;;;10.00;86.40;;;;;;4957894;29;20392;-72
2021/10/12 03:00:55;;;;;;;10.57;2.03;;;10.00;86.50;;;;;;4957261;29;20511;-71
2021/10/12 03:03:24;;;;;;;17.08;2.55;;;10.00;86.60;;;;;;4957608;29;20059;-71
2021/10/12 03:05:51;;;;;;;14.70;2.28;;;10.00;86.60;;;;;;4957533;29;20043;-71
2021/10/12 03:08:18;;;;;;;14.20;2.60;;;10.00;86.70;;;;;;4957365;29;20063;-71
2021/10/12 03:15:21;;;;;;;22.70;3.38;;;10.00;87.10;;;;;;4957131;29;20035;-71
2021/10/12 03:17:48;;;;;;;13.95;2.33;;;10.00;87.50;;;;;;4956103;29;20051;-71
2021/10/12 03:20:19;;;;;;;15.40;2.70;;;10.00;87.50;;;;;;4956978;29;20047;-71
2021/10/12 03:27:18;;;;;;;13.57;2.70;;;10.10;87.70;;;;;;4957004;29;20039;-71
2021/10/12 03:29:46;;;;;;;15.95;3.28;;;10.00;88.00;;;;;;4957273;29;20047;-71
2021/10/12 03:32:14;;;;;;;17.85;2.83;;;10.00;88.30;;;;;;4957025;29;20099;-70
2021/10/12 03:34:41;;;;;;;20.65;3.10;;;10.00;88.60;;;;;;4957143;29;20043;-71
2021/10/12 03:37:09;;;;;;;19.30;3.10;;;10.00;88.80;;;;;;4955934;29;20055;-70
2021/10/12 03:39:36;;;;;;;21.20;3.45;;;10.00;88.70;;;;;;4956694;29;20054;-70
2021/10/12 03:42:05;;;;;;;15.68;3.25;;;10.00;88.70;;;;;;4956553;29;20056;-71
2021/10/12 03:44:32;;;;;;;15.75;3.03;;;10.00;88.80;;;;;;4923635;29;20051;-71
2021/10/12 03:47:00;;;;;;;13.63;3.10;;;10.00;88.80;;;;;;4956963;29;20381;-71
2021/10/12 03:49:27;;;;;;;15.07;3.35;;;10.00;88.80;;;;;;4939316;29;20062;-71
2021/10/12 03:51:55;;;;;;;22.10;3.05;;;10.00;88.80;;;;;;4956601;29;20054;-71
2021/10/12 03:54:22;;;;;;;16.20;2.95;;;10.10;88.80;;;;;;4939799;29;20384;-71
2021/10/12 03:56:50;;;;;;;17.77;2.95;;;10.10;88.80;;;;;;4956350;29;20047;-71
2021/10/12 04:03:53;;;;;;;18.05;2.80;;;10.20;88.80;;;;;;4956434;28;20415;-71
2021/10/12 04:06:21;;;;;;;10.40;2.90;;;10.10;88.60;;;;;;4956928;29;20051;-71
2021/10/12 04:08:48;;;;;;;20.27;3.78;;;10.10;88.70;;;;;;4956299;29;20054;-71
2021/10/12 04:11:16;;;;;;;16.38;3.33;;;10.10;88.80;;;;;;4956904;29;20054;-71
2021/10/12 04:13:43;;;;;;;18.30;3.28;;;10.10;88.80;;;;;;4956133;29;20082;-71
2021/10/12 04:16:11;;;;;;;13.20;3.10;;;10.10;88.80;;;;;;4955918;29;20054;-71
2021/10/12 04:18:39;;;;;;;14.75;3.20;;;10.10;88.90;;;;;;4954866;28;20051;-71
2021/10/12 04:21:06;;;;;;;16.92;3.10;;;10.00;88.90;;;;;;4956019;29;20043;-71
2021/10/12 04:23:36;;;;;;;12.27;3.15;;;10.00;89.00;;;;;;4955372;29;20059;-71
2021/10/12 04:26:08;;;;;;;18.33;2.90;;;9.90;89.10;;;;;;4938534;29;20047;-71
2021/10/12 04:28:39;;;;;;;18.08;3.70;;;9.90;89.10;;;;;;4956310;29;20063;-71
2021/10/12 04:31:07;;;;;;;15.48;2.80;;;9.90;89.10;;;;;;4955577;29;20056;-72
2021/10/12 04:33:35;;;;;;;19.65;3.38;;;10.00;89.10;;;;;;4955745;29;20074;-71
2021/10/12 04:36:03;;;;;;;19.30;3.42;;;9.90;89.20;;;;;;4939010;29;20477;-72
2021/10/12 04:38:30;;;;;;;16.38;3.78;;;9.90;89.20;;;;;;4956284;29;20055;-71
2021/10/12 04:40:58;;;;;;;20.70;4.18;;;9.90;89.20;;;;;;4955906;29;20066;-72
2021/10/12 04:43:25;;;;;;;17.73;3.60;;;9.90;89.30;;;;;;4955355;29;20055;-71
2021/10/12 04:45:53;;;;;;;14.80;3.17;;;9.90;89.40;;;;;;4937851;29;20058;-71
2021/10/12 04:48:21;;;;;;;14.05;3.65;;;9.90;89.50;;;;;;4955904;29;20507;-71
2021/10/12 04:50:49;;;;;;;16.88;3.63;;;9.90;89.60;;;;;;4955371;29;20124;-70
2021/10/12 04:53:16;;;;;;;15.13;3.45;;;9.90;89.80;;;;;;4955211;29;20121;-70
2021/10/12 04:55:44;;;;;;;15.10;3.67;;;9.90;89.80;;;;;;4955969;29;20058;-71
2021/10/12 04:58:11;;;;;;;19.23;3.45;;;9.90;89.80;;;;;;4923150;29;20047;-71
2021/10/12 05:00:39;;;;;;;14.98;3.67;;;10.00;89.80;;;;;;4956004;29;20479;-70
2021/10/12 05:03:07;;;;;;;20.27;3.30;;;10.00;89.90;;;;;;4954719;29;20054;-71
2021/10/12 05:05:36;;;;;;;13.73;3.65;;;10.00;89.90;;;;;;4955490;29;20066;-71
2021/10/12 05:08:03;;;;;;;19.05;3.70;;;10.00;89.90;;;;;;4955075;29;20055;-71
2021/10/12 05:10:31;;;;;;;17.92;3.80;;;10.00;89.90;;;;;;4955014;29;20051;-71
2021/10/12 05:12:58;;;;;;;13.70;3.83;;;10.10;90.00;;;;;;4954927;29;20047;-71
2021/10/12 05:15:28;;;;;;;15.13;3.97;;;10.10;90.00;;;;;;4954982;29;20270;-71
2021/10/12 05:17:56;;;;;;;13.43;3.15;;;10.10;90.00;;;;;;4955290;29;20059;-71
2021/10/12 05:20:25;;;;;;;20.55;3.50;;;10.10;90.00;;;;;;4938121;29;20047;-71
2021/10/12 05:22:53;;;;;;;12.55;3.40;;;10.10;90.10;;;;;;4954812;29;20392;-70
2021/10/12 05:25:20;;;;;;;17.15;3.85;;;10.10;90.10;;;;;;4955019;28;20508;-71
2021/10/12 05:27:48;;;;;;;23.02;4.05;;;10.10;90.20;;;;;;4953786;29;20511;-71
2021/10/12 05:30:16;;;;;;;19.48;3.67;;;10.10;90.20;;;;;;4954709;29;20055;-71
2021/10/12 05:32:43;;;;;;;17.80;3.70;;;10.10;90.30;;;;;;4955259;29;20047;-72
2021/10/12 05:35:12;;;;;;;9.85;3.85;;;10.10;90.30;;;;;;4954622;29;20055;-72
2021/10/12 05:37:40;;;;;;;11.13;3.90;;;10.20;90.30;;;;;;4954795;29;20066;-70
2021/10/12 05:40:08;;;;;;;13.98;3.83;;;10.20;90.40;;;;;;4954175;29;20078;-71
2021/10/12 05:42:35;;;;;;;20.52;3.80;;;10.20;90.40;;;;;;4937614;29;20051;-71
2021/10/12 05:45:04;;;;;;;13.60;3.53;;;10.20;90.40;;;;;;4954714;29;20043;-70
2021/10/12 05:47:32;;;;;;;16.63;3.70;;;10.20;90.50;;;;;;4957627;28;20047;-70
2021/10/12 05:49:59;;;;;;;16.77;4.05;;;10.20;90.50;;;;;;4958867;29;20146;-71
2021/10/12 05:52:27;;;;;;;14.90;3.85;;;10.20;90.50;;;;;;4959028;29;20047;-70
2021/10/12 05:55:07;;;;;;;19.83;4.90;;;10.20;90.60;;;;;;4958938;29;20047;-70
2021/10/12 05:57:53;;;;;;;12.52;3.70;;;10.20;90.60;;;;;;4974078;28;20047;-70
2021/10/12 06:00:21;;;;;;;16.63;4.05;;;10.20;90.70;;;;;;4957976;29;20493;-71
2021/10/12 06:02:48;;;;;;;17.70;3.85;;;10.20;90.70;;;;;;4941224;29;20055;-71
2021/10/12 06:05:16;;;;;;;19.27;4.20;;;10.20;90.70;;;;;;4957499;29;20066;-71
2021/10/12 06:07:45;;;;;;;19.45;3.53;;;10.20;90.80;;;;;;4973326;28;20059;-71
2021/10/12 06:10:12;;;;;;;18.80;4.25;;;10.20;90.80;;;;;;4957045;29;20043;-71
2021/10/12 06:12:40;;;;;;;16.65;3.88;;;10.20;90.80;;;;;;4956824;29;20172;-71
2021/10/12 06:15:08;;;;;;;18.67;4.18;;;10.30;90.90;;;;;;4973026;28;20515;-71
2021/10/12 06:17:35;;;;;;;22.88;5.00;;;10.30;90.80;;;;;;4941175;29;20066;-71
2021/10/12 06:20:03;;;;;;;17.40;4.40;;;10.30;90.80;;;;;;4958037;29;20047;-71
2021/10/12 06:27:21;;;;;;;20.52;4.00;;;10.30;90.80;;;;;;4964662;28;20383;-71
2021/10/12 06:29:49;;;;;;;18.30;4.63;;;10.30;90.60;;;;;;4958124;28;20434;-71
2021/10/12 06:32:17;;;;;;;18.90;3.88;;;10.30;90.70;;;;;;4958510;29;20052;-71
2021/10/12 06:34:44;;;;;;;14.75;4.07;;;10.30;90.80;;;;;;4958418;29;20044;-72
2021/10/12 06:41:45;;;;;;;21.00;4.25;;;10.40;91.00;;;;;;4958079;29;20512;-71
2021/10/12 06:44:14;;;;;;;23.58;5.00;;;10.40;90.90;;;;;;4957035;29;20503;-71
2021/10/12 06:46:42;;;;;;;17.63;4.07;;;10.40;90.80;;;;;;4957000;29;20051;-71
2021/10/12 06:49:10;;;;;;;25.83;4.80;;;10.40;90.90;;;;;;4957521;29;20047;-71
2021/10/12 06:51:37;;;;;;;16.65;5.22;;;10.50;91.00;;;;;;4958064;29;20055;-71
2021/10/12 06:54:15;;;;;;;18.15;4.40;;;10.60;91.00;;;;;;4957763;29;20062;-71
2021/10/12 06:56:43;;;;;;;22.00;4.68;;;10.70;91.00;;;;;;4958194;28;20047;-71
2021/10/12 06:59:11;;;;;;;16.63;4.82;;;10.70;90.90;;;;;;4955970;28;20515;-70
2021/10/12 07:01:39;;;;;;;21.88;4.25;;;10.70;90.90;;;;;;4955460;29;20059;-71
2021/10/12 07:04:07;;;;;;;21.30;4.10;;;10.80;90.80;;;;;;4957350;28;20051;-71
2021/10/12 07:06:34;;;;;;;20.23;3.90;;;10.80;90.90;;;;;;4956809;29;20066;-72
2021/10/12 07:09:02;;;;;;;15.02;3.67;;;10.90;90.90;;;;;;4957697;28;20055;-72
2021/10/12 07:11:29;;;;;;;13.48;3.53;;;10.90;90.80;;;;;;4957241;29;20074;-71
2021/10/12 07:13:57;;;;;;;19.35;3.95;;;11.00;90.70;;;;;;4957534;29;20058;-71
2021/10/12 07:16:25;;;;;;;24.23;3.85;;;11.00;90.70;;;;;;4971897;28;20488;-72
2021/10/12 07:23:28;;;;;;;19.88;3.63;;;11.10;90.60;;;;;;4940510;29;20031;-71
2021/10/12 07:25:55;;;;;;;20.95;3.88;;;11.10;90.50;;;;;;4956972;29;20047;-71
2021/10/12 07:28:23;;;;;;;11.98;3.47;;;11.20;90.40;;;;;;4956284;29;20051;-72
2021/10/12 07:30:50;;;;;;;16.13;3.50;;;11.20;90.30;;;;;;4971872;28;20043;-71
2021/10/12 07:37:55;;;;;;;16.95;3.92;;;11.30;90.20;;;;;;4956979;29;20048;-71
2021/10/12 07:40:23;;;;;;;19.65;3.85;;;11.30;90.10;;;;;;4957447;29;20051;-71
2021/10/12 07:42:50;;;;;;;18.25;3.15;;;11.30;90.10;;;;;;4956699;29;20051;-71
2021/10/12 07:45:18;;;;;;;12.90;3.40;;;11.30;90.00;;;;;;4957187;29;20477;-71
2021/10/12 07:47:46;;;;;;;18.20;3.40;;;11.30;90.00;;;;;;4956604;29;20062;-71
2021/10/12 07:50:15;;;;;;;12.82;3.28;;;11.30;90.00;;;;;;4940051;29;20380;-71
2021/10/12 07:52:43;;;;;;;17.17;3.55;;;11.40;90.00;;;;;;4956726;29;20043;-71
2021/10/12 07:55:14;;;;;;;14.32;3.20;;;11.40;90.00;;;;;;4956304;29;20054;-71
2021/10/12 07:57:42;;;;;;;17.83;3.40;;;11.50;90.00;;;;;;4939620;29;20511;-71
2021/10/12 08:00:10;;;;;;;19.27;3.58;;;11.50;89.90;;;;;;4971086;28;20073;-71
2021/10/12 08:02:38;;;;;;;14.40;2.83;;;11.50;89.90;;;;;;4956749;29;20062;-71
2021/10/12 08:05:06;;;;;;;17.25;3.42;;;11.60;89.90;;;;;;4955696;29;20503;-71
2021/10/12 08:07:34;;;;;;;17.88;3.08;;;11.70;89.80;;;;;;4971712;28;20476;-71
2021/10/12 08:10:19;;;;;;;21.67;3.22;;;11.70;89.80;;;;;;4956001;28;20047;-71
2021/10/12 08:12:50;;;;;;;14.65;3.13;;;11.80;89.60;;;;;;4970751;28;20496;-71
2021/10/12 08:15:18;;;;;;;17.83;3.17;;;11.80;89.50;;;;;;4955377;29;20058;-71
2021/10/12 08:17:46;;;;;;;18.65;3.13;;;11.80;89.40;;;;;;4955756;29;20063;-71
2021/10/12 08:20:14;;;;;;;13.10;2.90;;;11.80;89.40;;;;;;4955482;29;20062;-71
2021/10/12 08:22:42;;;;;;;14.18;2.65;;;11.80;89.40;;;;;;4955725;29;20051;-71
2021/10/12 08:25:10;;;;;;;18.75;2.75;;;11.90;89.40;;;;;;4955474;29;20058;-71
2021/10/12 08:27:39;;;;;;;22.67;2.80;;;12.00;89.40;;;;;;4938887;29;20124;-71
2021/10/12 08:30:09;;;;;;;15.10;3.03;;;12.10;89.30;;;;;;4955344;29;20062;-71
2021/10/12 08:32:39;;;;;;;15.15;2.97;;;12.10;89.30;;;;;;4956406;29;20054;-71
2021/10/12 08:35:08;;;;;;;13.93;2.45;;;12.20;89.20;;;;;;4955569;29;20127;-73
2021/10/12 08:37:37;;;;;;;16.95;3.00;;;12.30;89.20;;;;;;4955887;29;20047;-72
2021/10/12 08:40:12;;;;;;;26.27;2.70;;;12.30;89.10;;;;;;4954654;29;20523;-72
2021/10/12 08:43:00;;;;;;;15.05;2.65;;;12.30;89.00;;;;;;4938990;29;20408;-72
2021/10/12 08:50:01;;;;;;;19.77;3.10;;;12.40;88.80;;;;;;4955488;29;20365;-72
2021/10/12 08:52:29;;;;;;;13.73;2.83;;;12.30;88.70;;;;;;4955219;29;20489;-73
2021/10/12 08:54:56;;;;;;;14.50;3.03;;;12.40;88.70;;;;;;4955778;29;20171;-72
2021/10/12 08:57:38;;;;;;;18.83;3.33;;;12.40;88.60;;;;;;4956029;29;20487;-72
2021/10/12 09:00:14;;;;;;;14.48;2.83;;;12.50;88.70;;;;;;4954487;29;20077;-71
2021/10/12 09:06:02;;;;;;;16.65;3.05;;;12.60;88.60;;;;;;4955525;29;20044;-71
2021/10/12 09:08:32;;;;;;;10.73;2.88;;;12.60;88.50;;;;;;4955369;29;20468;-70
2021/10/12 09:11:00;;;;;;;13.32;3.00;;;12.60;88.40;;;;;;4955595;29;20472;-71
2021/10/12 09:13:28;;;;;;;15.25;3.15;;;12.70;88.50;;;;;;4938263;29;20391;-71
2021/10/12 09:16:06;;;;;;;13.63;3.50;;;12.80;88.50;;;;;;4954265;29;20062;-71
2021/10/12 09:18:46;;;;;;;23.50;4.10;;;12.80;88.40;;;;;;4955704;29;20051;-71
2021/10/12 09:25:46;;;;;;;11.65;2.65;;;12.90;88.20;;;;;;4955269;29;20384;-71
2021/10/12 09:28:25;;;;;;;16.15;3.03;;;13.10;88.10;;;;;;4955326;29;20054;-71
2021/10/12 09:30:58;;;;;;;11.80;3.05;;;13.10;88.10;;;;;;4955344;29;20077;-71
2021/10/12 09:33:26;;;;;;;10.43;2.80;;;13.30;88.10;;;;;;4955307;29;20047;-71
2021/10/12 09:40:28;;;;;;;10.23;3.97;;;13.40;87.60;;;;;;4954674;29;20044;-70
2021/10/12 09:42:56;;;;;;;18.67;4.03;;;13.50;87.40;;;;;;4954709;29;20403;-71
2021/10/12 09:45:36;;;;;;;22.05;4.63;;;13.40;87.50;;;;;;4955192;29;20047;-71
2021/10/12 09:48:29;;;;;;;12.35;3.75;;;13.40;87.60;;;;;;4955635;29;20078;-71
2021/10/12 09:51:08;;;;;;;16.23;4.18;;;13.40;87.70;;;;;;4955484;29;20047;-71
2021/10/12 09:53:36;;;;;;;19.73;4.22;;;13.30;87.80;;;;;;4955061;29;20054;-71
2021/10/12 09:56:05;;;;;;;15.95;3.90;;;13.30;88.00;;;;;;4937378;29;20062;-71
2021/10/12 09:58:33;;;;;;;12.50;3.83;;;13.30;88.10;;;;;;4937860;29;20401;-71
2021/10/12 10:01:04;;;;;;;15.80;4.00;;;13.30;88.30;;;;;;4954905;29;20047;-72
2021/10/12 10:03:33;;;;;;;14.50;4.82;;;13.30;88.50;;;;;;4954617;29;20051;-71
2021/10/12 10:06:21;;;;;;;15.68;4.57;;;13.30;88.60;;;;;;4954385;29;20051;-71
2021/10/12 10:08:51;;;;;;;13.50;4.50;;;13.30;88.70;;;;;;4954738;29;20043;-71
2021/10/12 10:11:42;;;;;;;15.32;4.82;;;13.30;88.90;;;;;;4937819;29;20073;-72
2021/10/12 10:14:12;;;;;;;12.80;4.63;;;13.30;88.90;;;;;;4937887;29;20043;-72
2021/10/12 10:16:50;;;;;;;11.10;5.20;;;13.30;88.90;;;;;;4937421;29;20051;-72
2021/10/12 10:19:26;;;;;;;13.85;5.38;;;13.30;89.10;;;;;;4954980;29;20044;-74
2021/10/12 10:21:54;;;;;;;16.40;6.18;;;13.30;89.20;;;;;;4937754;29;20405;-71
2021/10/12 10:24:45;;;;;;;12.55;6.78;;;13.30;89.40;;;;;;4954623;29;20052;-72
2021/10/12 10:27:34;;;;;;;15.07;7.70;;;13.30;89.70;;;;;;4936463;29;20054;-71
2021/10/12 10:30:30;;;;;;;9.40;5.80;;;13.20;89.80;;;;;;4953189;28;20047;-71
2021/10/12 10:33:04;;;;;;;11.82;6.18;;;13.20;89.80;;;;;;4956233;28;20502;-71
2021/10/12 10:35:32;;;;;;;10.90;6.78;;;13.20;89.90;;;;;;4925511;29;20055;-71
2021/10/12 10:38:26;;;;;;;15.15;7.60;;;13.20;90.00;;;;;;4957696;29;20511;-72
2021/10/12 10:41:03;;;;;;;16.27;8.68;;;13.10;90.10;;;;;;4951513;28;20488;-71
2021/10/12 10:43:49;;;;;;;14.30;8.13;;;13.10;90.20;;;;;;4958072;29;20043;-71
2021/10/12 10:46:33;;;;;;;18.02;8.38;;;13.00;90.40;;;;;;4941274;29;20070;-72
2021/10/12 10:49:19;;;;;;;11.07;8.70;;;13.10;90.50;;;;;;4940773;29;20059;-71
2021/10/12 10:52:02;;;;;;;12.98;9.25;;;13.10;90.70;;;;;;4958359;29;20050;-71
2021/10/12 10:54:39;;;;;;;14.82;9.52;;;13.20;90.70;;;;;;4940659;29;20063;-71
2021/10/12 10:57:08;;;;;;;13.07;9.60;;;13.30;90.60;;;;;;4925136;29;20058;-71
2021/10/12 10:59:35;;;;;;;9.13;5.57;;;13.30;90.60;;;;;;4924439;29;20043;-70
2021/10/12 11:02:26;;;;;;;8.35;5.55;;;13.30;90.50;;;;;;4956902;29;20070;-70
2021/10/12 11:04:54;;;;;;;9.68;5.47;;;13.30;90.50;;;;;;4957163;29;20054;-70
2021/10/12 11:07:24;;;;;;;12.43;7.22;;;13.20;90.60;;;;;;4958068;29;20043;-71
2021/10/12 11:09:53;;;;;;;13.05;7.38;;;13.20;90.60;;;;;;4957196;29;20051;-71
2021/10/12 11:12:23;;;;;;;18.17;8.43;;;13.20;90.60;;;;;;4957701;29;20050;-71
2021/10/12 11:15:04;;;;;;;13.65;8.43;;;13.20;90.80;;;;;;4957619;29;20051;-71
2021/10/12 11:17:32;;;;;;;8.38;5.45;;;13.10;90.90;;;;;;4958115;29;20080;-71
2021/10/12 11:20:03;;;;;;;9.75;5.03;;;13.20;91.00;;;;;;4956968;29;20039;-71
2021/10/12 11:22:31;;;;;;;7.68;4.25;;;13.20;91.00;;;;;;4957703;29;20058;-71
2021/10/12 11:24:58;;;;;;;7.82;4.28;;;13.30;91.00;;;;;;4956897;29;20055;-71
2021/10/12 11:27:46;;;;;;;9.00;3.92;;;13.30;90.90;;;;;;4957671;29;20047;-71
2021/10/12 11:30:15;;;;;;;7.40;3.10;;;13.50;90.80;;;;;;4957560;29;20066;-71
2021/10/12 11:32:54;;;;;;;6.85;2.42;;;13.60;90.60;;;;;;4956807;29;20062;-72
2021/10/12 11:35:34;;;;;;;7.85;2.65;;;13.70;90.20;;;;;;4940150;29;20404;-71
2021/10/12 11:38:03;;;;;;;7.93;3.58;;;13.70;90.10;;;;;;4957363;29;20481;-72
2021/10/12 11:40:32;;;;;;;5.60;1.90;;;13.70;90.00;;;;;;4957180;29;20054;-72
2021/10/12 11:43:03;;;;;;;10.20;2.40;;;13.70;90.00;;;;;;4956561;29;20047;-72
2021/10/12 11:45:31;;;;;;;5.03;2.17;;;13.70;89.90;;;;;;4955464;28;20140;-72
2021/10/12 11:47:59;;;;;;;11.10;2.90;;;13.70;90.00;;;;;;4940102;29;20051;-72
2021/10/12 11:50:27;;;;;;;6.10;2.22;;;13.80;90.00;;;;;;4923582;29;20074;-72
2021/10/12 11:52:58;;;;;;;7.65;2.00;;;13.80;89.90;;;;;;4956727;29;20047;-72
2021/10/12 11:55:29;;;;;;;7.13;2.05;;;13.80;89.80;;;;;;4923407;29;20059;-72
2021/10/12 11:58:09;;;;;;;9.80;2.50;;;13.80;89.80;;;;;;4956631;29;20051;-72
2021/10/12 12:00:38;;;;;;;10.88;2.85;;;13.80;89.90;;;;;;4939520;29;20043;-72
2021/10/12 12:03:17;;;;;;;9.68;2.78;;;13.80;90.00;;;;;;4939390;29;20055;-72
2021/10/12 12:05:56;;;;;;;5.53;2.30;;;13.90;90.10;;;;;;4956212;29;20054;-71
2021/10/12 12:08:26;;;;;;;7.07;2.10;;;14.00;90.00;;;;;;4956416;29;20377;-72
2021/10/12 12:10:56;;;;;;;5.35;1.65;;;14.10;89.70;;;;;;4957056;28;20054;-72
2021/10/12 12:13:28;;;;;;;6.35;1.80;;;14.00;89.40;;;;;;4956668;29;20492;-72
2021/10/12 12:15:57;;;;;;;5.55;1.90;;;14.00;89.20;;;;;;4956430;28;20051;-72
2021/10/12 12:18:27;;;;;;;5.38;1.92;;;14.00;89.10;;;;;;4922879;29;20058;-72
2021/10/12 12:21:00;;;;;;;5.63;1.55;;;14.00;89.20;;;;;;4938474;29;20490;-71
2021/10/12 12:23:36;;;;;;;2.53;1.33;;;14.00;89.30;;;;;;4970703;28;20043;-72
2021/10/12 12:26:09;;;;;;;3.40;1.40;;;13.90;89.20;;;;;;4956293;29;20044;-72
2021/10/12 12:28:38;;;;;;;2.65;1.20;;;13.90;89.30;;;;;;4956468;29;20054;-71
2021/10/12 12:31:20;;;;;;;2.10;0.90;;;13.90;89.50;;;;;;4955578;29;20050;-72
2021/10/12 12:33:48;;;;;;;3.90;1.13;;;14.00;89.60;;;;;;4954562;29;20058;-72
2021/10/12 12:36:18;;;;;;;7.85;1.58;;;14.00;89.60;;;;;;4938152;29;20412;-70
2021/10/12 12:38:47;;;;;;;2.42;1.67;;;14.00;89.60;;;;;;4938752;29;20058;-71
2021/10/12 12:41:22;;;;;;;4.63;1.90;;;14.00;89.60;;;;;;4955426;29;20125;-70
2021/10/12 12:43:57;;;;;;;4.32;2.47;;;14.00;89.70;;;;;;4956137;29;20051;-71
2021/10/12 12:46:26;;;;;;;3.60;3.22;;;14.00;89.80;;;;;;4956217;29;20043;-71
2021/10/12 12:49:07;;;;;;;3.13;2.90;;;14.00;89.80;;;;;;4955387;29;20499;-71
2021/10/12 12:51:46;;;;;;;3.30;3.00;;;14.00;89.90;;;;;;4937424;29;20051;-71
2021/10/12 12:54:43;;;;;;;5.45;2.85;;;14.00;90.00;;;;;;4955725;29;20051;-71
2021/10/12 12:57:15;;;;;;;4.43;2.80;;;14.00;90.00;;;;;;4954872;28;20059;-72
2021/10/12 13:00:08;;;;;;;5.95;3.75;;;13.90;90.10;;;;;;4938789;29;20048;-71
2021/10/12 13:02:36;;;;;;;3.90;3.30;;;13.80;90.30;;;;;;4955431;29;20062;-71
2021/10/12 13:05:04;;;;;;;8.18;3.28;;;13.70;90.50;;;;;;4955092;29;20062;-71
2021/10/12 13:07:33;;;;;;;3.88;3.60;;;13.70;90.70;;;;;;4938347;29;20358;-71
2021/10/12 13:10:01;;;;;;;5.03;3.38;;;13.60;90.80;;;;;;4938067;29;20052;-71
2021/10/12 13:12:29;;;;;;;5.80;3.85;;;13.70;91.00;;;;;;4938124;29;20058;-71
2021/10/12 13:14:57;;;;;;;8.15;5.00;;;13.60;90.90;;;;;;4954928;29;20050;-70
2021/10/12 13:17:25;;;;;;;9.05;5.57;;;13.60;90.90;;;;;;4938358;29;20051;-71
2021/10/12 13:19:53;;;;;;;9.55;3.33;;;13.60;91.00;;;;;;4954891;29;20047;-71
2021/10/12 13:22:22;;;;;;;7.68;3.25;;;13.70;91.10;;;;;;4937658;29;20066;-71
2021/10/12 13:24:50;;;;;;;7.00;2.75;;;13.70;90.90;;;;;;4955573;29;20208;-71
2021/10/12 13:27:18;;;;;;;10.18;3.10;;;13.80;90.90;;;;;;4922837;29;20062;-71
2021/10/12 13:29:46;;;;;;;7.18;2.78;;;14.00;90.80;;;;;;4954473;29;20476;-72
2021/10/12 13:32:15;;;;;;;8.27;2.70;;;14.20;90.50;;;;;;4954814;29;20055;-70
2021/10/12 13:34:42;;;;;;;6.95;2.47;;;14.30;90.10;;;;;;4938014;29;20137;-72
2021/10/12 13:37:10;;;;;;;7.25;2.33;;;14.50;89.70;;;;;;4954608;29;20047;-71
2021/10/12 13:39:39;;;;;;;7.28;2.28;;;14.60;89.30;;;;;;4937537;29;20055;-72
2021/10/12 13:42:08;;;;;;;6.90;2.30;;;14.60;88.90;;;;;;4954993;29;20047;-71
2021/10/12 13:44:37;;;;;;;10.18;2.05;;;14.70;88.80;;;;;;4955397;29;20055;-71
2021/10/12 13:47:05;;;;;;;6.85;2.13;;;14.70;88.70;;;;;;4937339;29;20051;-71
2021/10/12 13:49:33;;;;;;;6.03;2.42;;;14.60;88.40;;;;;;4954490;29;20404;-71
2021/10/12 13:52:03;;;;;;;8.23;2.20;;;14.50;88.40;;;;;;4955054;29;20054;-71
2021/10/12 13:54:34;;;;;;;7.10;2.13;;;14.40;88.30;;;;;;4954605;29;20071;-71
2021/10/12 13:57:02;;;;;;;5.82;1.92;;;14.40;88.50;;;;;;4954740;29;20051;-71
2021/10/12 13:59:30;;;;;;;10.25;1.73;;;14.30;88.50;;;;;;4954416;29;20413;-71
2021/10/12 14:01:58;;;;;;;6.75;1.70;;;14.40;88.30;;;;;;4937083;29;20047;-72
2021/10/12 14:04:26;;;;;;;7.38;1.80;;;14.50;88.20;;;;;;4954488;29;20508;-73
2021/10/12 14:06:53;;;;;;;5.40;1.80;;;14.50;88.10;;;;;;4936223;28;20054;-72
2021/10/12 14:09:21;;;;;;;7.10;1.67;;;14.60;88.10;;;;;;4941548;29;20117;-73